Time;durP1;ratioP1;P1;durP2;ratioP2;P2;SDS_P1;SDS_P2;PMS_P1;PMS_P2;Temp;Humidity;BMP_temperature;BMP_pressure;BME280_temperature;BME280_humidity;BME280_pressure;Samples;Min_cycle;Max_cycle;Signal;HPM_P1;HPM_P2
2021/06/26 00:01:56;;;;;;;20.27;16.80;;;17.80;99.90;;;;;;5048714;28;20031;-41
2021/06/26 00:04:22;;;;;;;20.92;16.70;;;17.80;99.90;;;;;;5057227;28;20028;-41
2021/06/26 00:06:47;;;;;;;20.10;16.80;;;17.70;99.90;;;;;;5048092;28;20028;-41
2021/06/26 00:09:13;;;;;;;18.55;15.75;;;17.60;99.90;;;;;;5057711;28;20943;-42
2021/06/26 00:11:38;;;;;;;18.20;15.73;;;17.60;99.90;;;;;;5048088;28;20379;-41
2021/06/26 00:14:05;;;;;;;19.75;16.35;;;17.50;99.90;;;;;;5057587;28;20031;-42
2021/06/26 00:16:31;;;;;;;20.55;16.90;;;17.50;99.90;;;;;;5046927;28;20491;-41
2021/06/26 00:18:56;;;;;;;19.77;15.98;;;17.50;99.90;;;;;;5055086;28;20025;-42
2021/06/26 00:21:22;;;;;;;17.80;15.73;;;17.50;99.90;;;;;;5046851;28;20139;-41
2021/06/26 00:23:47;;;;;;;20.08;17.38;;;17.40;99.90;;;;;;5058531;28;20028;-42
2021/06/26 00:26:13;;;;;;;18.85;15.82;;;17.40;99.90;;;;;;5046908;28;20071;-42
2021/06/26 00:28:38;;;;;;;18.55;16.25;;;17.40;99.90;;;;;;5055651;28;20106;-42
2021/06/26 00:31:04;;;;;;;19.65;16.40;;;17.40;99.90;;;;;;5049856;28;20162;-41
2021/06/26 00:33:30;;;;;;;18.77;16.60;;;17.40;99.90;;;;;;5052420;28;20041;-41
2021/06/26 00:35:55;;;;;;;18.63;16.25;;;17.30;99.90;;;;;;5052422;28;20030;-41
2021/06/26 00:38:21;;;;;;;18.83;16.20;;;17.20;99.90;;;;;;5050546;28;20017;-42
2021/06/26 00:40:47;;;;;;;18.85;16.20;;;17.30;99.90;;;;;;5054429;28;20127;-41
2021/06/26 00:43:12;;;;;;;19.95;16.63;;;17.20;99.90;;;;;;5047710;28;20434;-41
2021/06/26 00:45:38;;;;;;;18.90;16.48;;;17.10;99.90;;;;;;5058087;28;20056;-42
2021/06/26 00:48:04;;;;;;;18.08;16.05;;;17.10;99.90;;;;;;5046744;28;20040;-41
2021/06/26 00:50:30;;;;;;;18.75;16.13;;;17.10;99.90;;;;;;5058197;28;20025;-42
2021/06/26 00:52:56;;;;;;;18.77;16.17;;;17.10;99.90;;;;;;5046476;28;20035;-41
2021/06/26 00:55:23;;;;;;;19.42;16.33;;;17.10;99.90;;;;;;5058566;28;20151;-42
2021/06/26 00:57:57;;;;;;;18.65;16.65;;;17.00;99.90;;;;;;5046181;28;20039;-42
2021/06/26 01:00:28;;;;;;;20.58;16.70;;;17.00;99.90;;;;;;5063184;28;20039;-42
2021/06/26 01:02:54;;;;;;;18.10;15.38;;;17.00;99.90;;;;;;5049657;28;20025;-42
2021/06/26 01:05:20;;;;;;;18.83;15.65;;;16.90;99.90;;;;;;5063016;28;20539;-42
2021/06/26 01:07:47;;;;;;;18.77;16.02;;;16.90;99.90;;;;;;5050434;28;20037;-41
2021/06/26 01:10:13;;;;;;;19.77;15.82;;;16.90;99.90;;;;;;5059934;28;20043;-41
2021/06/26 01:12:38;;;;;;;17.90;15.18;;;16.90;99.90;;;;;;5052629;28;20025;-41
2021/06/26 01:15:06;;;;;;;22.08;16.48;;;16.90;99.90;;;;;;5057085;28;20176;-43
2021/06/26 01:17:32;;;;;;;19.92;16.10;;;16.90;99.90;;;;;;5054358;28;20059;-41
2021/06/26 01:20:02;;;;;;;19.17;15.82;;;16.90;99.90;;;;;;5055421;28;20343;-42
2021/06/26 01:22:29;;;;;;;18.70;15.20;;;16.90;99.90;;;;;;5062258;28;20134;-43
2021/06/26 01:24:55;;;;;;;18.10;15.85;;;16.90;99.90;;;;;;5063721;28;20116;-41
2021/06/26 01:27:21;;;;;;;19.05;15.55;;;16.90;99.90;;;;;;5059689;28;20120;-42
2021/06/26 01:29:48;;;;;;;18.90;15.45;;;16.90;99.90;;;;;;5066631;28;20020;-42
2021/06/26 01:32:14;;;;;;;18.98;16.17;;;16.80;99.90;;;;;;5045893;28;20035;-42
2021/06/26 01:34:40;;;;;;;18.92;15.32;;;16.80;99.90;;;;;;5067060;28;20095;-42
2021/06/26 01:37:05;;;;;;;19.05;16.25;;;16.80;99.90;;;;;;5057985;28;20019;-42
2021/06/26 01:39:31;;;;;;;17.85;15.70;;;16.80;99.90;;;;;;5069877;28;20033;-42
2021/06/26 01:41:56;;;;;;;17.77;15.63;;;16.80;99.90;;;;;;5056935;28;20020;-42
2021/06/26 01:44:22;;;;;;;18.67;16.17;;;16.80;99.90;;;;;;5069687;28;20467;-42
2021/06/26 01:46:48;;;;;;;17.98;15.43;;;16.80;99.90;;;;;;5056417;28;20035;-42
2021/06/26 01:49:14;;;;;;;18.27;15.68;;;16.70;99.90;;;;;;5069592;28;20044;-42
2021/06/26 01:51:40;;;;;;;18.70;16.48;;;16.80;99.90;;;;;;5057968;28;20017;-42
2021/06/26 01:54:07;;;;;;;19.52;15.88;;;16.70;99.90;;;;;;5068064;28;20061;-42
2021/06/26 01:56:33;;;;;;;19.75;16.23;;;16.70;99.90;;;;;;5060583;28;20031;-41
2021/06/26 01:58:59;;;;;;;18.83;15.57;;;16.70;99.90;;;;;;5065071;28;20393;-42
2021/06/26 02:01:26;;;;;;;17.73;15.38;;;16.70;99.90;;;;;;5062651;28;20391;-40
2021/06/26 02:03:51;;;;;;;17.17;15.05;;;16.70;99.90;;;;;;5063275;28;20028;-42
2021/06/26 02:06:17;;;;;;;18.58;16.50;;;16.70;99.90;;;;;;5065032;28;20118;-42
2021/06/26 02:08:42;;;;;;;18.23;15.70;;;16.60;99.90;;;;;;5059541;28;20448;-42
2021/06/26 02:11:08;;;;;;;18.27;16.15;;;16.60;99.90;;;;;;5066850;28;20016;-42
2021/06/26 02:13:34;;;;;;;18.45;16.02;;;16.60;99.90;;;;;;5057684;28;20024;-42
2021/06/26 02:16:00;;;;;;;19.30;16.83;;;16.60;99.90;;;;;;5067168;28;20193;-42
2021/06/26 02:18:25;;;;;;;19.73;16.65;;;16.60;99.90;;;;;;5057206;28;20531;-42
2021/06/26 02:20:51;;;;;;;19.58;16.48;;;16.60;99.90;;;;;;5049032;28;20036;-42
2021/06/26 02:23:16;;;;;;;21.38;17.48;;;16.60;99.90;;;;;;5061106;28;20021;-42
2021/06/26 02:25:42;;;;;;;20.88;16.30;;;16.60;99.90;;;;;;5048305;28;20029;-42
2021/06/26 02:28:07;;;;;;;19.08;16.13;;;16.60;99.90;;;;;;5060988;28;20043;-42
2021/06/26 02:30:33;;;;;;;19.25;16.25;;;16.60;99.90;;;;;;5048824;28;20116;-42
2021/06/26 02:32:58;;;;;;;19.63;16.63;;;16.60;99.90;;;;;;5058496;28;20047;-42
2021/06/26 02:35:24;;;;;;;19.23;16.52;;;16.60;99.90;;;;;;5050524;28;20457;-42
2021/06/26 02:37:50;;;;;;;19.42;16.25;;;16.60;99.90;;;;;;5056605;28;20040;-41
2021/06/26 02:40:16;;;;;;;21.60;17.63;;;16.60;99.90;;;;;;5052667;28;20018;-42
2021/06/26 02:42:42;;;;;;;22.02;17.73;;;16.60;99.90;;;;;;5053794;28;20464;-43
2021/06/26 02:45:08;;;;;;;23.63;19.05;;;16.60;99.90;;;;;;5055758;28;20095;-42
2021/06/26 02:47:40;;;;;;;21.95;17.10;;;16.50;99.90;;;;;;5050652;28;20388;-42
2021/06/26 02:50:07;;;;;;;21.00;17.15;;;16.50;99.90;;;;;;5057483;28;20155;-42
2021/06/26 02:52:32;;;;;;;21.35;17.52;;;16.50;99.90;;;;;;5049595;28;20028;-42
2021/06/26 02:54:58;;;;;;;19.20;17.00;;;16.50;99.90;;;;;;5058582;28;20025;-41
2021/06/26 02:57:24;;;;;;;19.85;16.73;;;16.50;99.90;;;;;;5049735;28;21269;-41
2021/06/26 02:59:50;;;;;;;20.20;16.75;;;16.50;99.90;;;;;;5058945;28;20021;-43
2021/06/26 03:02:16;;;;;;;22.95;17.73;;;16.50;99.90;;;;;;5047842;28;20033;-42
2021/06/26 03:04:41;;;;;;;22.50;17.60;;;16.50;99.90;;;;;;5060728;28;20440;-42
2021/06/26 03:07:08;;;;;;;23.73;18.33;;;16.60;99.90;;;;;;5048036;28;20025;-43
2021/06/26 03:09:37;;;;;;;21.50;17.60;;;16.60;99.90;;;;;;5059808;28;20040;-43
2021/06/26 03:12:03;;;;;;;21.90;18.40;;;16.60;99.90;;;;;;5047769;28;20048;-40
2021/06/26 03:14:29;;;;;;;21.75;18.00;;;16.60;99.90;;;;;;5059758;28;20026;-42
2021/06/26 03:16:54;;;;;;;23.15;17.63;;;16.60;99.90;;;;;;5047880;28;20025;-42
2021/06/26 03:19:20;;;;;;;23.60;18.65;;;16.60;99.90;;;;;;5050720;28;20100;-42
2021/06/26 03:21:45;;;;;;;22.05;18.15;;;16.70;99.90;;;;;;5046943;28;20427;-42
2021/06/26 03:24:11;;;;;;;20.20;16.48;;;16.70;99.90;;;;;;5053443;28;20029;-41
2021/06/26 03:26:37;;;;;;;21.55;17.35;;;16.80;99.90;;;;;;5061751;28;20036;-42
2021/06/26 03:29:03;;;;;;;22.00;18.25;;;16.80;99.90;;;;;;5062647;28;20111;-42
2021/06/26 03:31:28;;;;;;;20.45;16.73;;;16.80;99.90;;;;;;5059133;28;20035;-43
2021/06/26 03:33:54;;;;;;;21.23;17.13;;;16.80;99.90;;;;;;5065808;28;20020;-42
2021/06/26 03:36:20;;;;;;;20.17;16.33;;;16.90;99.90;;;;;;5055762;28;20103;-43
2021/06/26 03:38:45;;;;;;;22.45;18.13;;;16.90;99.90;;;;;;5066113;28;20024;-41
2021/06/26 03:41:12;;;;;;;23.52;18.33;;;16.90;99.90;;;;;;5056031;28;20024;-43
2021/06/26 03:43:38;;;;;;;24.02;17.98;;;16.90;99.90;;;;;;5067011;28;20523;-44
2021/06/26 03:46:03;;;;;;;21.50;17.80;;;16.90;99.90;;;;;;5059271;28;20017;-41
2021/06/26 03:48:29;;;;;;;22.83;18.70;;;16.90;99.90;;;;;;5047241;28;20041;-41
2021/06/26 03:50:59;;;;;;;20.50;16.98;;;17.00;99.90;;;;;;5058784;28;20455;-42
2021/06/26 03:53:26;;;;;;;22.35;17.77;;;17.10;99.90;;;;;;5047358;28;20468;-43
2021/06/26 03:55:51;;;;;;;21.17;17.48;;;17.10;99.90;;;;;;5058568;28;20042;-42
2021/06/26 03:58:22;;;;;;;21.58;17.85;;;17.10;99.90;;;;;;5047492;28;20131;-42
2021/06/26 04:00:47;;;;;;;24.58;18.70;;;17.20;99.90;;;;;;5056249;28;20059;-42
2021/06/26 04:03:15;;;;;;;22.58;17.85;;;17.20;99.90;;;;;;5049873;28;20666;-42
2021/06/26 04:05:40;;;;;;;23.65;18.60;;;17.20;99.90;;;;;;5053895;28;20750;-42
2021/06/26 04:08:06;;;;;;;21.30;18.30;;;17.20;99.90;;;;;;5051972;28;20598;-42
2021/06/26 04:10:32;;;;;;;23.65;18.65;;;17.30;99.90;;;;;;5051038;28;20179;-42
2021/06/26 04:12:57;;;;;;;24.35;18.38;;;17.30;99.90;;;;;;5054198;28;20478;-42
2021/06/26 04:15:23;;;;;;;19.48;17.38;;;17.30;99.90;;;;;;5048871;28;20025;-41
2021/06/26 04:17:48;;;;;;;25.42;19.20;;;17.30;99.90;;;;;;5057648;28;20021;-41
2021/06/26 04:20:14;;;;;;;24.55;19.30;;;17.30;99.90;;;;;;5058228;28;20104;-43
2021/06/26 04:22:43;;;;;;;25.80;20.35;;;17.40;99.90;;;;;;5055373;28;20016;-44
2021/06/26 04:25:09;;;;;;;23.65;18.65;;;17.40;99.90;;;;;;5065655;28;20029;-40
2021/06/26 04:27:37;;;;;;;25.67;19.98;;;17.40;99.90;;;;;;5055423;28;20083;-41
2021/06/26 04:30:06;;;;;;;25.20;19.67;;;17.40;99.90;;;;;;5066831;28;20020;-41
2021/06/26 04:32:34;;;;;;;26.30;20.38;;;17.40;99.90;;;;;;5053347;28;20113;-41
2021/06/26 04:34:59;;;;;;;24.55;19.50;;;17.40;99.90;;;;;;5066671;28;20024;-41
2021/06/26 04:37:25;;;;;;;25.77;20.42;;;17.40;99.90;;;;;;5053940;28;20689;-40
2021/06/26 04:39:50;;;;;;;26.58;20.65;;;17.40;99.90;;;;;;5066460;28;20099;-43
2021/06/26 04:42:16;;;;;;;24.95;20.13;;;17.40;99.90;;;;;;5056607;28;20075;-41
2021/06/26 04:44:42;;;;;;;24.80;20.27;;;17.40;99.90;;;;;;5064543;28;20029;-41
2021/06/26 04:47:08;;;;;;;29.02;19.40;;;17.40;99.90;;;;;;5058270;28;20035;-42
2021/06/26 04:49:34;;;;;;;25.20;19.45;;;17.50;99.90;;;;;;5062011;28;20073;-41
2021/06/26 04:52:00;;;;;;;23.70;18.95;;;17.50;99.90;;;;;;5060859;28;20021;-42
2021/06/26 04:54:25;;;;;;;24.50;18.55;;;17.50;99.90;;;;;;5059425;28;20037;-41
2021/06/26 04:56:51;;;;;;;23.42;19.17;;;17.60;99.90;;;;;;5064004;28;20025;-41
2021/06/26 04:59:16;;;;;;;23.85;19.25;;;17.60;99.90;;;;;;5056998;28;20025;-43
2021/06/26 05:01:45;;;;;;;24.25;18.80;;;17.70;99.90;;;;;;5064472;28;20101;-42
2021/06/26 05:04:10;;;;;;;22.83;18.10;;;17.70;99.90;;;;;;5055208;28;20092;-42
2021/06/26 05:06:36;;;;;;;22.00;17.27;;;17.80;99.90;;;;;;5065513;28;20080;-43
2021/06/26 05:09:01;;;;;;;22.15;16.88;;;17.80;99.90;;;;;;5054188;28;20542;-43
2021/06/26 05:11:27;;;;;;;22.30;16.30;;;17.90;99.90;;;;;;5067142;28;20430;-42
2021/06/26 05:13:52;;;;;;;25.15;18.10;;;18.00;99.90;;;;;;5053374;28;20028;-42
2021/06/26 05:16:18;;;;;;;21.83;16.60;;;18.00;99.90;;;;;;5065763;28;20505;-43
2021/06/26 05:18:43;;;;;;;21.77;16.85;;;18.00;99.90;;;;;;5053821;28;20091;-43
2021/06/26 05:21:09;;;;;;;22.42;16.50;;;18.00;99.90;;;;;;5045979;28;20086;-42
2021/06/26 05:23:34;;;;;;;22.60;17.13;;;18.10;99.90;;;;;;5056159;28;20116;-42
2021/06/26 05:26:00;;;;;;;21.73;16.35;;;18.10;99.90;;;;;;5049287;28;20090;-42
2021/06/26 05:28:26;;;;;;;23.17;16.85;;;18.20;99.90;;;;;;5052797;28;20033;-42
2021/06/26 05:30:52;;;;;;;21.25;16.30;;;18.30;99.90;;;;;;5051554;28;20021;-42
2021/06/26 05:33:17;;;;;;;21.00;15.65;;;18.30;99.90;;;;;;5050658;28;20450;-42
2021/06/26 05:35:43;;;;;;;23.25;16.05;;;18.30;99.90;;;;;;5053690;28;20021;-42
2021/06/26 05:38:12;;;;;;;23.98;16.63;;;18.40;99.90;;;;;;5047924;28;20044;-41
2021/06/26 05:40:38;;;;;;;20.17;15.70;;;18.40;99.90;;;;;;5056465;28;20613;-41
2021/06/26 05:43:03;;;;;;;21.58;16.50;;;18.40;99.90;;;;;;5046515;28;20115;-41
2021/06/26 05:45:29;;;;;;;19.30;15.48;;;18.50;99.90;;;;;;5061098;28;20025;-42
2021/06/26 05:47:55;;;;;;;18.40;14.85;;;18.50;99.90;;;;;;5050074;28;20028;-42
2021/06/26 05:50:20;;;;;;;18.88;14.80;;;18.50;99.90;;;;;;5061338;28;20452;-41
2021/06/26 05:52:48;;;;;;;17.85;15.27;;;18.60;99.90;;;;;;5049485;28;20040;-41
2021/06/26 05:55:14;;;;;;;18.25;14.85;;;18.60;99.90;;;;;;5061761;28;20052;-42
2021/06/26 05:57:40;;;;;;;16.40;13.65;;;18.60;99.90;;;;;;5049435;28;20099;-43
2021/06/26 06:00:07;;;;;;;16.83;14.52;;;18.60;99.90;;;;;;5061712;28;20131;-43
2021/06/26 06:02:32;;;;;;;18.92;15.00;;;18.70;99.90;;;;;;5049381;28;20058;-42
2021/06/26 06:04:58;;;;;;;18.25;14.90;;;18.80;99.90;;;;;;5058713;28;20024;-42
2021/06/26 06:07:26;;;;;;;19.60;16.83;;;18.80;99.90;;;;;;5052142;28;20090;-42
2021/06/26 06:09:51;;;;;;;27.05;19.15;;;18.80;99.90;;;;;;5056498;28;20070;-42
2021/06/26 06:12:17;;;;;;;21.00;17.55;;;18.80;99.90;;;;;;5053621;28;20017;-42
2021/06/26 06:14:42;;;;;;;24.27;19.63;;;18.70;99.90;;;;;;5054126;28;20533;-42
2021/06/26 06:17:08;;;;;;;24.40;19.77;;;18.60;99.90;;;;;;5056518;28;20115;-41
2021/06/26 06:19:34;;;;;;;24.10;18.63;;;18.60;99.90;;;;;;5051177;28;20020;-41
2021/06/26 06:22:00;;;;;;;24.88;18.45;;;18.60;99.90;;;;;;5059471;28;20045;-42
2021/06/26 06:24:25;;;;;;;24.30;18.23;;;18.70;99.90;;;;;;5050719;28;20475;-42
2021/06/26 06:26:51;;;;;;;23.63;18.80;;;18.70;99.90;;;;;;5059588;28;20033;-42
2021/06/26 06:29:16;;;;;;;22.10;17.52;;;18.80;99.90;;;;;;5049766;28;20025;-42
2021/06/26 06:31:42;;;;;;;24.20;18.33;;;18.90;99.90;;;;;;5059782;28;20013;-42
2021/06/26 06:34:07;;;;;;;22.90;19.33;;;19.00;99.90;;;;;;5048749;28;20504;-42
2021/06/26 06:36:36;;;;;;;21.77;17.90;;;19.10;99.90;;;;;;5061712;28;20068;-41
2021/06/26 06:39:02;;;;;;;25.35;20.08;;;19.30;99.90;;;;;;5048439;28;20025;-42
2021/06/26 06:41:27;;;;;;;24.35;17.65;;;19.40;99.90;;;;;;5060507;28;20032;-42
2021/06/26 06:43:53;;;;;;;21.70;17.10;;;19.60;99.90;;;;;;5048733;28;20128;-42
2021/06/26 06:46:28;;;;;;;23.67;18.77;;;19.60;99.90;;;;;;5057902;28;20488;-42
2021/06/26 06:49:02;;;;;;;23.40;19.13;;;19.70;99.90;;;;;;5050054;28;20033;-42
2021/06/26 06:51:28;;;;;;;25.58;20.48;;;19.60;99.90;;;;;;5057924;28;20021;-41
2021/06/26 06:53:53;;;;;;;24.05;19.05;;;19.60;99.90;;;;;;5049865;28;20427;-41
2021/06/26 06:56:19;;;;;;;19.63;16.98;;;19.50;99.90;;;;;;5054761;28;20551;-42
2021/06/26 06:58:47;;;;;;;18.77;15.82;;;19.50;99.90;;;;;;5049899;28;20128;-43
2021/06/26 07:01:13;;;;;;;20.70;15.38;;;19.40;99.90;;;;;;5043361;28;20052;-43
2021/06/26 07:03:38;;;;;;;18.27;15.30;;;19.40;99.90;;;;;;5056902;28;20371;-42
2021/06/26 07:06:04;;;;;;;15.98;12.85;;;19.40;99.90;;;;;;5046275;28;20024;-45
2021/06/26 07:08:30;;;;;;;16.95;14.57;;;19.40;99.90;;;;;;5057848;28;20239;-42
2021/06/26 07:10:56;;;;;;;18.80;15.32;;;19.30;99.90;;;;;;5048076;28;20056;-42
2021/06/26 07:13:22;;;;;;;15.90;13.35;;;19.30;99.90;;;;;;5058524;28;20032;-42
2021/06/26 07:15:47;;;;;;;14.65;12.98;;;19.30;99.90;;;;;;5047043;28;20058;-42
2021/06/26 07:18:13;;;;;;;18.20;13.98;;;19.30;99.90;;;;;;5059285;28;20769;-41
2021/06/26 07:20:42;;;;;;;13.93;11.38;;;19.40;99.90;;;;;;5061258;28;20039;-42
2021/06/26 07:23:07;;;;;;;11.73;9.43;;;19.40;99.90;;;;;;5054241;28;20051;-43
2021/06/26 07:25:33;;;;;;;12.95;11.30;;;19.50;99.90;;;;;;5065957;28;20451;-42
2021/06/26 07:27:58;;;;;;;11.23;10.02;;;19.50;99.90;;;;;;5054248;28;20037;-42
2021/06/26 07:30:24;;;;;;;11.23;9.73;;;19.60;99.90;;;;;;5065435;28;20451;-42
2021/06/26 07:32:50;;;;;;;14.02;12.13;;;19.70;99.90;;;;;;5057774;28;20035;-42
2021/06/26 07:35:16;;;;;;;13.50;11.25;;;19.70;99.90;;;;;;5062668;28;20016;-43
2021/06/26 07:37:42;;;;;;;13.30;11.18;;;19.70;99.90;;;;;;5060423;28;20057;-42
2021/06/26 07:40:09;;;;;;;14.77;11.18;;;19.70;99.90;;;;;;5059989;28;20032;-42
2021/06/26 07:42:35;;;;;;;13.52;11.35;;;19.80;99.90;;;;;;5061682;28;20025;-42
2021/06/26 07:45:01;;;;;;;12.45;10.85;;;19.90;99.90;;;;;;5058362;28;20043;-42
2021/06/26 07:47:26;;;;;;;12.63;10.68;;;19.90;99.90;;;;;;5051069;28;20056;-43
2021/06/26 07:49:52;;;;;;;11.15;9.93;;;19.90;99.90;;;;;;5056461;28;20064;-42
2021/06/26 07:52:17;;;;;;;12.52;10.52;;;19.90;99.90;;;;;;5047781;28;20413;-42
2021/06/26 07:54:43;;;;;;;12.25;10.93;;;19.90;99.90;;;;;;5057486;28;20040;-43
2021/06/26 07:57:08;;;;;;;14.10;12.60;;;20.00;99.90;;;;;;5045794;28;20020;-42
2021/06/26 07:59:34;;;;;;;14.10;11.20;;;20.00;99.90;;;;;;5059505;28;20102;-43
2021/06/26 08:01:59;;;;;;;11.75;9.70;;;20.00;99.90;;;;;;5046580;28;20413;-42
2021/06/26 08:04:25;;;;;;;10.43;9.32;;;20.10;99.90;;;;;;5047713;28;20108;-41
2021/06/26 08:06:50;;;;;;;10.88;9.77;;;20.10;99.90;;;;;;5054483;28;20029;-42
2021/06/26 08:09:16;;;;;;;11.68;10.50;;;20.20;99.90;;;;;;5053879;28;20472;-43
2021/06/26 08:11:41;;;;;;;11.23;10.02;;;20.20;99.90;;;;;;5048014;28;20504;-43
2021/06/26 08:14:08;;;;;;;12.40;11.10;;;20.20;99.90;;;;;;5050425;28;20449;-43
2021/06/26 08:16:34;;;;;;;11.98;10.48;;;20.30;99.90;;;;;;5063136;28;20025;-43
2021/06/26 08:19:00;;;;;;;13.60;11.40;;;20.30;99.90;;;;;;5060676;28;20431;-42
2021/06/26 08:21:26;;;;;;;14.25;11.00;;;20.30;99.90;;;;;;5066991;28;20024;-41
2021/06/26 08:23:52;;;;;;;15.20;11.65;;;20.40;99.90;;;;;;5063344;28;20787;-43
2021/06/26 08:26:18;;;;;;;17.80;12.38;;;20.40;99.90;;;;;;5057338;28;20024;-43
2021/06/26 08:28:43;;;;;;;16.02;13.07;;;20.50;99.90;;;;;;5064708;28;20036;-43
2021/06/26 08:31:09;;;;;;;18.70;14.25;;;20.50;99.90;;;;;;5054756;28;20021;-43
2021/06/26 08:33:34;;;;;;;14.18;12.38;;;20.60;99.90;;;;;;5048214;28;20512;-43
2021/06/26 08:36:00;;;;;;;13.90;11.88;;;20.60;99.90;;;;;;5057625;28;20579;-43
2021/06/26 08:38:25;;;;;;;16.52;12.32;;;20.60;99.90;;;;;;5046372;28;20035;-43
2021/06/26 08:40:54;;;;;;;14.68;13.00;;;20.70;99.90;;;;;;5059327;28;20463;-43
2021/06/26 08:43:22;;;;;;;12.20;10.10;;;20.70;99.90;;;;;;5046962;28;20058;-44
2021/06/26 08:45:47;;;;;;;14.35;12.85;;;20.80;99.90;;;;;;5058842;28;20103;-42
2021/06/26 08:48:13;;;;;;;10.90;9.80;;;20.80;99.90;;;;;;5047132;28;20906;-43
2021/06/26 08:50:39;;;;;;;13.05;10.77;;;20.90;99.90;;;;;;5057619;28;20027;-43
2021/06/26 08:53:07;;;;;;;12.80;11.05;;;20.90;99.90;;;;;;5047892;28;20033;-42
2021/06/26 08:55:33;;;;;;;13.88;11.25;;;20.90;99.90;;;;;;5055382;28;20047;-43
2021/06/26 08:58:02;;;;;;;13.35;10.82;;;21.00;99.90;;;;;;5062651;28;20028;-43
2021/06/26 09:00:28;;;;;;;12.93;11.20;;;21.10;99.90;;;;;;5059447;28;20044;-43
2021/06/26 09:03:15;;;;;;;12.93;10.75;;;21.10;99.90;;;;;;5060058;28;20024;-41
2021/06/26 09:05:44;;;;;;;16.38;12.88;;;21.10;99.90;;;;;;5058973;28;20071;-42
2021/06/26 09:08:16;;;;;;;13.05;11.32;;;21.20;99.90;;;;;;5060892;28;20285;-42
2021/06/26 09:10:43;;;;;;;10.57;9.25;;;21.20;99.80;;;;;;5060672;28;20061;-42
2021/06/26 09:13:12;;;;;;;12.10;9.95;;;21.30;99.80;;;;;;5060092;28;20021;-41
2021/06/26 09:15:38;;;;;;;10.00;8.65;;;21.30;99.80;;;;;;5044434;28;20044;-42
2021/06/26 09:18:20;;;;;;;9.90;8.73;;;21.40;99.60;;;;;;5056962;28;20428;-42
2021/06/26 09:20:51;;;;;;;10.68;8.60;;;21.40;99.50;;;;;;5059310;28;20017;-42
2021/06/26 09:23:31;;;;;;;10.75;8.85;;;21.50;99.30;;;;;;5059080;28;20090;-43
2021/06/26 09:26:11;;;;;;;9.30;8.40;;;21.60;99.20;;;;;;5053529;28;20516;-42
2021/06/26 09:28:38;;;;;;;8.98;8.07;;;21.60;99.10;;;;;;5056970;28;20111;-43
2021/06/26 09:31:13;;;;;;;8.70;7.85;;;21.70;98.90;;;;;;5052285;28;20025;-42
2021/06/26 09:33:38;;;;;;;8.63;7.72;;;21.70;98.90;;;;;;5049934;28;20036;-42
2021/06/26 09:36:07;;;;;;;8.40;7.40;;;21.60;98.90;;;;;;5049587;28;20027;-43
2021/06/26 09:38:35;;;;;;;9.57;8.25;;;21.70;98.80;;;;;;5059733;28;20079;-41
2021/06/26 09:41:16;;;;;;;8.45;7.65;;;21.70;98.70;;;;;;5050926;28;20134;-42
2021/06/26 09:43:42;;;;;;;10.60;8.13;;;21.80;98.70;;;;;;5047784;28;20131;-44
2021/06/26 09:46:13;;;;;;;8.77;7.82;;;21.90;98.70;;;;;;5068910;28;20375;-42
2021/06/26 09:48:53;;;;;;;7.45;6.75;;;21.90;98.50;;;;;;5058303;28;20045;-42
2021/06/26 09:51:27;;;;;;;7.90;7.20;;;22.00;98.40;;;;;;5068306;28;20395;-42
2021/06/26 09:54:00;;;;;;;8.55;7.65;;;22.00;98.30;;;;;;5046502;28;20582;-42
2021/06/26 09:56:36;;;;;;;;;;;22.10;98.10;;;;;;5035419;28;20070;-42
2021/06/26 09:59:02;;;;;;;8.35;7.55;;;22.10;98.30;;;;;;5060397;28;20744;-43
2021/06/26 10:01:27;;;;;;;7.70;6.95;;;22.20;97.90;;;;;;5051359;28;20021;-42
2021/06/26 10:03:54;;;;;;;8.02;7.10;;;22.20;97.80;;;;;;5060896;28;20455;-44
2021/06/26 10:06:20;;;;;;;9.40;7.93;;;22.20;97.80;;;;;;5047869;28;20027;-43
2021/06/26 10:08:46;;;;;;;9.25;8.35;;;22.30;97.80;;;;;;5061198;28;20029;-43
2021/06/26 10:11:12;;;;;;;7.15;6.50;;;22.40;97.50;;;;;;5049743;28;20033;-43
2021/06/26 10:13:40;;;;;;;8.50;7.70;;;22.50;97.40;;;;;;5061800;28;20024;-43
2021/06/26 10:16:06;;;;;;;10.48;8.85;;;22.60;96.90;;;;;;5049376;28;20025;-43
2021/06/26 10:18:32;;;;;;;8.95;8.02;;;22.80;96.30;;;;;;5059175;28;20226;-44
2021/06/26 10:21:00;;;;;;;7.97;7.28;;;23.00;96.10;;;;;;5065562;28;20396;-42
2021/06/26 10:23:36;;;;;;;9.55;8.60;;;23.10;96.00;;;;;;5060890;28;20326;-42
2021/06/26 10:26:05;;;;;;;8.45;7.57;;;23.10;95.40;;;;;;5063148;28;20054;-43
2021/06/26 10:28:30;;;;;;;8.18;7.38;;;23.10;95.60;;;;;;5056638;28;20083;-43
2021/06/26 10:31:02;;;;;;;11.25;8.90;;;23.10;95.70;;;;;;5052556;28;20457;-43
2021/06/26 10:33:30;;;;;;;8.98;8.18;;;23.10;95.60;;;;;;5054292;28;20490;-43
2021/06/26 10:35:58;;;;;;;10.30;8.18;;;23.10;95.50;;;;;;5055617;28;20039;-43
2021/06/26 10:38:24;;;;;;;10.05;8.13;;;23.00;95.60;;;;;;5052031;28;20476;-43
2021/06/26 10:40:55;;;;;;;8.85;7.90;;;23.10;95.70;;;;;;5057413;28;20017;-42
2021/06/26 10:43:31;;;;;;;10.82;7.85;;;23.10;95.70;;;;;;5050482;28;20013;-42
2021/06/26 10:46:10;;;;;;;7.90;7.20;;;23.10;95.50;;;;;;5057367;28;20099;-44
2021/06/26 10:48:37;;;;;;;8.75;7.80;;;23.10;95.40;;;;;;5051266;28;20072;-42
2021/06/26 10:51:03;;;;;;;8.60;7.78;;;23.10;94.80;;;;;;5058557;28;20097;-43
2021/06/26 10:53:37;;;;;;;9.13;8.23;;;23.30;94.50;;;;;;5049610;28;20044;-42
2021/06/26 10:56:14;;;;;;;10.88;8.40;;;23.40;94.20;;;;;;5059040;28;20044;-42
2021/06/26 10:58:46;;;;;;;8.57;7.75;;;23.50;94.30;;;;;;5050102;28;20316;-44
2021/06/26 11:01:20;;;;;;;9.00;8.10;;;23.50;94.10;;;;;;5059688;28;20460;-44
2021/06/26 11:03:49;;;;;;;9.20;8.18;;;23.70;93.90;;;;;;5033055;28;20021;-41
2021/06/26 11:06:35;;;;;;;8.18;7.47;;;23.80;93.60;;;;;;5058512;28;20047;-43
2021/06/26 11:09:06;;;;;;;8.20;7.47;;;23.90;93.60;;;;;;5048680;28;20025;-42
2021/06/26 11:11:42;;;;;;;8.38;7.57;;;23.90;93.50;;;;;;5058505;28;20041;-43
2021/06/26 11:14:21;;;;;;;8.90;8.00;;;24.00;93.60;;;;;;5048614;28;20065;-41
2021/06/26 11:16:55;;;;;;;9.50;8.60;;;24.10;93.50;;;;;;5045428;28;20137;-42
2021/06/26 11:19:22;;;;;;;9.20;8.30;;;24.10;93.30;;;;;;5065899;28;20017;-42
2021/06/26 11:21:56;;;;;;;9.45;8.52;;;24.20;93.00;;;;;;5056498;28;20329;-43
2021/06/26 11:24:37;;;;;;;9.50;8.70;;;24.30;92.70;;;;;;5064491;28;20558;-42
2021/06/26 11:27:04;;;;;;;9.38;8.48;;;24.40;92.70;;;;;;5057526;28;20040;-43
2021/06/26 11:29:35;;;;;;;8.63;7.82;;;24.50;92.60;;;;;;5049267;28;20068;-43
2021/06/26 11:32:04;;;;;;;10.68;7.95;;;24.60;92.60;;;;;;5058204;28;20028;-42
2021/06/26 11:34:30;;;;;;;9.52;8.52;;;24.60;92.70;;;;;;5041563;28;20037;-42
2021/06/26 11:37:04;;;;;;;9.85;8.88;;;24.60;92.60;;;;;;5059096;28;20017;-42
2021/06/26 11:39:31;;;;;;;8.63;7.80;;;24.70;92.40;;;;;;5048129;28;20429;-42
2021/06/26 11:41:57;;;;;;;8.73;7.93;;;24.80;92.50;;;;;;5058678;28;20021;-42
2021/06/26 11:44:37;;;;;;;9.25;8.32;;;24.90;92.40;;;;;;5046227;28;20116;-41
2021/06/26 11:47:05;;;;;;;10.05;8.90;;;25.00;92.20;;;;;;5057447;28;20024;-42
2021/06/26 11:49:45;;;;;;;11.02;9.85;;;25.20;92.00;;;;;;5046040;28;20116;-42
2021/06/26 11:52:13;;;;;;;8.88;8.07;;;25.20;90.80;;;;;;5057790;28;20086;-42
2021/06/26 11:54:40;;;;;;;9.57;8.68;;;25.40;91.00;;;;;;5045471;28;20052;-41
2021/06/26 11:57:08;;;;;;;9.57;8.40;;;25.50;90.90;;;;;;5057229;28;20025;-42
2021/06/26 11:59:45;;;;;;;10.00;9.10;;;25.50;91.20;;;;;;5047084;28;20143;-42
2021/06/26 12:02:12;;;;;;;10.18;9.18;;;25.50;90.90;;;;;;5058326;28;20541;-43
2021/06/26 12:04:38;;;;;;;9.32;8.35;;;25.50;90.90;;;;;;5047616;28;20021;-42
2021/06/26 12:07:06;;;;;;;9.30;8.07;;;25.50;91.00;;;;;;5055992;28;20031;-42
2021/06/26 12:09:32;;;;;;;9.20;7.88;;;25.70;91.00;;;;;;5048540;28;20048;-41
2021/06/26 12:11:59;;;;;;;7.72;6.82;;;25.80;90.90;;;;;;5053911;28;20446;-43
2021/06/26 12:14:36;;;;;;;11.32;10.07;;;25.90;90.70;;;;;;5052149;28;20029;-42
2021/06/26 12:17:11;;;;;;;12.15;10.82;;;26.10;89.90;;;;;;5052777;28;20108;-43
2021/06/26 12:19:37;;;;;;;9.90;8.90;;;26.30;89.20;;;;;;5053802;28;20029;-43
2021/06/26 12:22:05;;;;;;;9.90;8.90;;;26.30;89.30;;;;;;5061165;28;20425;-43
2021/06/26 12:24:35;;;;;;;9.98;8.98;;;26.30;89.10;;;;;;5059554;28;20441;-42
2021/06/26 12:27:13;;;;;;;9.27;8.43;;;26.30;88.70;;;;;;5063204;28;20058;-44
2021/06/26 12:29:43;;;;;;;8.93;8.02;;;26.30;89.00;;;;;;5059931;28;20024;-42
2021/06/26 12:32:09;;;;;;;9.65;8.63;;;26.30;89.00;;;;;;5063171;28;20066;-42
2021/06/26 12:34:45;;;;;;;9.60;8.60;;;26.30;89.60;;;;;;5057479;28;20032;-42